sensor_id;sensor_type;location;lat;lon;timestamp;pressure;altitude;pressure_sealevel;temperature;humidity
13420;BME280;6781;58.440;15.470;2022-12-16T00:01:01;100782.84;;;-5.63;100.00
13420;BME280;6781;58.440;15.470;2022-12-16T00:03:28;100788.69;;;-5.59;100.00
13420;BME280;6781;58.440;15.470;2022-12-16T00:05:56;100788.69;;;-5.59;100.00
13420;BME280;6781;58.440;15.470;2022-12-16T00:08:22;100782.81;;;-5.61;100.00
13420;BME280;6781;58.440;15.470;2022-12-16T00:10:49;100781.16;;;-5.62;100.00
13420;BME280;6781;58.440;15.470;2022-12-16T00:13:19;100769.34;;;-5.62;100.00
13420;BME280;6781;58.440;15.470;2022-12-16T00:15:46;100776.94;;;-5.63;100.00
13420;BME280;6781;58.440;15.470;2022-12-16T00:18:13;100780.28;;;-5.61;100.00
13420;BME280;6781;58.440;15.470;2022-12-16T00:20:43;100781.97;;;-5.60;100.00
13420;BME280;6781;58.440;15.470;2022-12-16T00:23:12;100790.38;;;-5.58;100.00
13420;BME280;6781;58.440;15.470;2022-12-16T00:25:40;100788.69;;;-5.59;100.00
13420;BME280;6781;58.440;15.470;2022-12-16T00:28:07;100800.47;;;-5.58;100.00
13420;BME280;6781;58.440;15.470;2022-12-16T00:30:34;100791.22;;;-5.61;100.00
13420;BME280;6781;58.440;15.470;2022-12-16T00:33:01;100797.13;;;-5.60;100.00
13420;BME280;6781;58.440;15.470;2022-12-16T00:35:27;100798.75;;;-5.56;100.00
13420;BME280;6781;58.440;15.470;2022-12-16T00:37:55;100805.50;;;-5.55;100.00
13420;BME280;6781;58.440;15.470;2022-12-16T00:40:24;100808.03;;;-5.55;100.00
13420;BME280;6781;58.440;15.470;2022-12-16T00:42:50;100809.72;;;-5.55;100.00
13420;BME280;6781;58.440;15.470;2022-12-16T00:45:17;100810.53;;;-5.53;100.00
13420;BME280;6781;58.440;15.470;2022-12-16T00:47:44;100805.47;;;-5.52;100.00
13420;BME280;6781;58.440;15.470;2022-12-16T00:50:11;100812.22;;;-5.54;100.00
13420;BME280;6781;58.440;15.470;2022-12-16T00:52:38;100811.38;;;-5.53;100.00
13420;BME280;6781;58.440;15.470;2022-12-16T00:55:05;100809.69;;;-5.52;100.00
13420;BME280;6781;58.440;15.470;2022-12-16T00:57:34;100818.94;;;-5.51;100.00
13420;BME280;6781;58.440;15.470;2022-12-16T01:00:01;100806.31;;;-5.54;100.00
13420;BME280;6781;58.440;15.470;2022-12-16T01:02:29;100812.22;;;-5.54;100.00
13420;BME280;6781;58.440;15.470;2022-12-16T01:04:56;100812.22;;;-5.54;100.00
13420;BME280;6781;58.440;15.470;2022-12-16T01:07:23;100809.69;;;-5.54;100.00
13420;BME280;6781;58.440;15.470;2022-12-16T01:09:50;100803.81;;;-5.56;100.00
13420;BME280;6781;58.440;15.470;2022-12-16T01:12:16;100808.91;;;-5.61;100.00
13420;BME280;6781;58.440;15.470;2022-12-16T01:14:45;100815.59;;;-5.55;100.00
13420;BME280;6781;58.440;15.470;2022-12-16T01:17:14;100816.44;;;-5.56;100.00
13420;BME280;6781;58.440;15.470;2022-12-16T01:19:40;100824.03;;;-5.56;100.00
13420;BME280;6781;58.440;15.470;2022-12-16T01:22:07;100826.53;;;-5.53;100.00
13420;BME280;6781;58.440;15.470;2022-12-16T01:24:34;100831.53;;;-5.48;100.00
13420;BME280;6781;58.440;15.470;2022-12-16T01:27:00;100827.34;;;-5.51;100.00
13420;BME280;6781;58.440;15.470;2022-12-16T01:29:27;100831.56;;;-5.53;100.00
13420;BME280;6781;58.440;15.470;2022-12-16T01:31:55;100829.06;;;-5.56;100.00
13420;BME280;6781;58.440;15.470;2022-12-16T01:34:22;100830.72;;;-5.52;100.00
13420;BME280;6781;58.440;15.470;2022-12-16T01:36:49;100830.72;;;-5.52;100.00
13420;BME280;6781;58.440;15.470;2022-12-16T01:39:16;100836.63;;;-5.53;100.00
13420;BME280;6781;58.440;15.470;2022-12-16T01:41:42;100844.22;;;-5.56;100.00
13420;BME280;6781;58.440;15.470;2022-12-16T01:44:12;100853.44;;;-5.50;100.00
13420;BME280;6781;58.440;15.470;2022-12-16T01:46:40;100854.25;;;-5.48;100.00
13420;BME280;6781;58.440;15.470;2022-12-16T01:49:09;100860.97;;;-5.46;100.00
13420;BME280;6781;58.440;15.470;2022-12-16T01:51:39;100857.56;;;-5.42;100.00
13420;BME280;6781;58.440;15.470;2022-12-16T01:54:09;100858.41;;;-5.41;100.00
13420;BME280;6781;58.440;15.470;2022-12-16T01:56:38;100856.75;;;-5.45;100.00
13420;BME280;6781;58.440;15.470;2022-12-16T01:59:06;100861.78;;;-5.42;100.00
13420;BME280;6781;58.440;15.470;2022-12-16T02:01:33;100855.06;;;-5.45;100.00
13420;BME280;6781;58.440;15.470;2022-12-16T02:04:00;100855.03;;;-5.42;100.00
13420;BME280;6781;58.440;15.470;2022-12-16T02:06:29;100852.50;;;-5.39;100.00
13420;BME280;6781;58.440;15.470;2022-12-16T02:08:57;100859.19;;;-5.36;100.00
13420;BME280;6781;58.440;15.470;2022-12-16T02:11:34;100851.59;;;-5.35;100.00
13420;BME280;6781;58.440;15.470;2022-12-16T02:16:51;100867.59;;;-5.34;100.00
13420;BME280;6781;58.440;15.470;2022-12-16T02:19:25;100867.66;;;-5.39;100.00
13420;BME280;6781;58.440;15.470;2022-12-16T02:22:02;100870.94;;;-5.31;100.00
13420;BME280;6781;58.440;15.470;2022-12-16T02:24:44;100873.47;;;-5.31;100.00
13420;BME280;6781;58.440;15.470;2022-12-16T02:27:24;100876.00;;;-5.31;100.00
13420;BME280;6781;58.440;15.470;2022-12-16T02:32:51;100872.59;;;-5.27;100.00
13420;BME280;6781;58.440;15.470;2022-12-16T02:35:21;100877.66;;;-5.28;100.00
13420;BME280;6781;58.440;15.470;2022-12-16T02:37:51;100872.63;;;-5.30;100.00
13420;BME280;6781;58.440;15.470;2022-12-16T02:40:22;100876.78;;;-5.26;100.00
13420;BME280;6781;58.440;15.470;2022-12-16T02:42:52;100874.22;;;-5.22;100.00
13420;BME280;6781;58.440;15.470;2022-12-16T02:45:23;100871.75;;;-5.27;100.00
13420;BME280;6781;58.440;15.470;2022-12-16T02:47:52;100875.94;;;-5.26;100.00
13420;BME280;6781;58.440;15.470;2022-12-16T02:50:19;100881.84;;;-5.26;100.00
13420;BME280;6781;58.440;15.470;2022-12-16T02:52:46;100885.19;;;-5.23;100.00
13420;BME280;6781;58.440;15.470;2022-12-16T02:55:14;100892.78;;;-5.23;100.00
13420;BME280;6781;58.440;15.470;2022-12-16T02:57:57;100899.50;;;-5.22;100.00
13420;BME280;6781;58.440;15.470;2022-12-16T03:00:25;100896.91;;;-5.19;100.00
13420;BME280;6781;58.440;15.470;2022-12-16T03:02:56;100899.41;;;-5.16;100.00
13420;BME280;6781;58.440;15.470;2022-12-16T03:08:01;100916.25;;;-5.15;100.00
13420;BME280;6781;58.440;15.470;2022-12-16T03:10:31;100909.50;;;-5.13;100.00
13420;BME280;6781;58.440;15.470;2022-12-16T03:13:00;100928.81;;;-5.09;100.00
13420;BME280;6781;58.440;15.470;2022-12-16T03:15:28;100923.81;;;-5.15;100.00
13420;BME280;6781;58.440;15.470;2022-12-16T03:17:57;100922.97;;;-5.14;100.00
13420;BME280;6781;58.440;15.470;2022-12-16T03:20:26;100923.75;;;-5.08;100.00
13420;BME280;6781;58.440;15.470;2022-12-16T03:22:53;100927.97;;;-5.08;100.00
13420;BME280;6781;58.440;15.470;2022-12-16T03:25:21;100921.25;;;-5.09;100.00
13420;BME280;6781;58.440;15.470;2022-12-16T03:27:52;100922.91;;;-5.08;100.00
13420;BME280;6781;58.440;15.470;2022-12-16T03:30:22;100936.38;;;-5.05;100.00
13420;BME280;6781;58.440;15.470;2022-12-16T03:32:51;100937.22;;;-5.06;100.00
13420;BME280;6781;58.440;15.470;2022-12-16T03:35:24;100935.44;;;-4.96;100.00
13420;BME280;6781;58.440;15.470;2022-12-16T03:37:53;100953.13;;;-4.96;100.00
13420;BME280;6781;58.440;15.470;2022-12-16T03:40:21;100958.16;;;-4.93;100.00
13420;BME280;6781;58.440;15.470;2022-12-16T03:42:48;100961.56;;;-4.96;100.00
13420;BME280;6781;58.440;15.470;2022-12-16T03:45:17;100968.28;;;-4.93;100.00
13420;BME280;6781;58.440;15.470;2022-12-16T03:47:47;100969.09;;;-4.91;100.00
13420;BME280;6781;58.440;15.470;2022-12-16T03:50:14;100966.56;;;-4.91;100.00
13420;BME280;6781;58.440;15.470;2022-12-16T03:52:42;100969.88;;;-4.83;100.00
13420;BME280;6781;58.440;15.470;2022-12-16T03:55:09;100977.47;;;-4.84;100.00
13420;BME280;6781;58.440;15.470;2022-12-16T03:57:35;100981.72;;;-4.88;100.00
13420;BME280;6781;58.440;15.470;2022-12-16T04:00:02;100980.84;;;-4.85;100.00
13420;BME280;6781;58.440;15.470;2022-12-16T04:02:29;100980.00;;;-4.86;100.00
13420;BME280;6781;58.440;15.470;2022-12-16T04:04:55;100979.94;;;-4.80;100.00
13420;BME280;6781;58.440;15.470;2022-12-16T04:07:22;100982.44;;;-4.77;100.00
13420;BME280;6781;58.440;15.470;2022-12-16T04:09:50;100993.41;;;-4.78;100.00
13420;BME280;6781;58.440;15.470;2022-12-16T04:12:18;100989.19;;;-4.76;100.00
13420;BME280;6781;58.440;15.470;2022-12-16T04:15:02;100991.72;;;-4.76;100.00
13420;BME280;6781;58.440;15.470;2022-12-16T04:17:55;101011.09;;;-4.73;100.00
13420;BME280;6781;58.440;15.470;2022-12-16T04:20:41;101008.59;;;-4.78;100.00
13420;BME280;6781;58.440;15.470;2022-12-16T04:23:26;101022.03;;;-4.73;100.00
13420;BME280;6781;58.440;15.470;2022-12-16T04:26:13;101018.75;;;-4.81;100.00
13420;BME280;6781;58.440;15.470;2022-12-16T04:28:40;101033.03;;;-4.78;100.00
13420;BME280;6781;58.440;15.470;2022-12-16T04:31:07;101029.66;;;-4.76;100.00
13420;BME280;6781;58.440;15.470;2022-12-16T04:33:34;101036.38;;;-4.75;100.00
13420;BME280;6781;58.440;15.470;2022-12-16T04:36:19;101040.59;;;-4.74;100.00
13420;BME280;6781;58.440;15.470;2022-12-16T04:39:03;101052.41;;;-4.76;100.00
13420;BME280;6781;58.440;15.470;2022-12-16T04:41:52;101054.09;;;-4.75;100.00
13420;BME280;6781;58.440;15.470;2022-12-16T04:44:36;101062.53;;;-4.76;100.00
13420;BME280;6781;58.440;15.470;2022-12-16T04:47:20;101059.97;;;-4.73;100.00
13420;BME280;6781;58.440;15.470;2022-12-16T04:50:04;101062.50;;;-4.73;100.00
13420;BME280;6781;58.440;15.470;2022-12-16T04:52:49;101065.06;;;-4.76;100.00
13420;BME280;6781;58.440;15.470;2022-12-16T04:55:33;101078.44;;;-4.65;100.00
13420;BME280;6781;58.440;15.470;2022-12-16T04:58:18;101081.00;;;-4.68;100.00
13420;BME280;6781;58.440;15.470;2022-12-16T05:01:02;101082.69;;;-4.67;100.00
13420;BME280;6781;58.440;15.470;2022-12-16T05:03:46;101079.31;;;-4.66;100.00
13420;BME280;6781;58.440;15.470;2022-12-16T05:06:30;101086.88;;;-4.64;100.00
13420;BME280;6781;58.440;15.470;2022-12-16T05:09:14;101102.03;;;-4.60;100.00
13420;BME280;6781;58.440;15.470;2022-12-16T05:11:58;101102.88;;;-4.61;100.00
13420;BME280;6781;58.440;15.470;2022-12-16T05:14:43;101102.06;;;-4.64;100.00
13420;BME280;6781;58.440;15.470;2022-12-16T05:17:27;101098.69;;;-4.66;100.00
13420;BME280;6781;58.440;15.470;2022-12-16T05:20:11;101102.06;;;-4.66;100.00
13420;BME280;6781;58.440;15.470;2022-12-16T05:22:55;101104.56;;;-4.63;100.00
13420;BME280;6781;58.440;15.470;2022-12-16T05:25:40;101109.63;;;-4.63;100.00
13420;BME280;6781;58.440;15.470;2022-12-16T05:28:24;101114.66;;;-4.60;100.00
13420;BME280;6781;58.440;15.470;2022-12-16T05:31:10;101119.69;;;-4.56;100.00
13420;BME280;6781;58.440;15.470;2022-12-16T05:33:54;101128.94;;;-4.51;100.00
13420;BME280;6781;58.440;15.470;2022-12-16T05:36:38;101129.81;;;-4.56;100.00
13420;BME280;6781;58.440;15.470;2022-12-16T05:39:21;101131.56;;;-4.62;100.00
13420;BME280;6781;58.440;15.470;2022-12-16T05:42:06;101138.25;;;-4.57;100.00
13420;BME280;6781;58.440;15.470;2022-12-16T05:44:50;101146.72;;;-4.60;100.00
13420;BME280;6781;58.440;15.470;2022-12-16T05:47:36;101153.47;;;-4.61;100.00
13420;BME280;6781;58.440;15.470;2022-12-16T05:50:31;101161.00;;;-4.53;100.00
13420;BME280;6781;58.440;15.470;2022-12-16T05:53:15;101167.78;;;-4.58;100.00
13420;BME280;6781;58.440;15.470;2022-12-16T05:55:59;101168.66;;;-4.61;100.00
13420;BME280;6781;58.440;15.470;2022-12-16T05:58:43;101177.94;;;-4.61;100.00
13420;BME280;6781;58.440;15.470;2022-12-16T06:01:27;101182.97;;;-4.58;100.00
13420;BME280;6781;58.440;15.470;2022-12-16T06:04:12;101193.06;;;-4.53;100.00
13420;BME280;6781;58.440;15.470;2022-12-16T06:06:57;101194.72;;;-4.49;100.00
13420;BME280;6781;58.440;15.470;2022-12-16T06:09:41;101198.91;;;-4.45;100.00
13420;BME280;6781;58.440;15.470;2022-12-16T06:12:24;101207.28;;;-4.40;100.00
13420;BME280;6781;58.440;15.470;2022-12-16T06:15:09;101216.56;;;-4.41;100.00
13420;BME280;6781;58.440;15.470;2022-12-16T06:17:52;101212.38;;;-4.42;100.00
13420;BME280;6781;58.440;15.470;2022-12-16T06:20:38;101221.66;;;-4.42;100.00
13420;BME280;6781;58.440;15.470;2022-12-16T06:23:22;101217.47;;;-4.46;100.00
13420;BME280;6781;58.440;15.470;2022-12-16T06:26:07;101212.41;;;-4.49;100.00
13420;BME280;6781;58.440;15.470;2022-12-16T06:28:51;101209.91;;;-4.54;100.00
13420;BME280;6781;58.440;15.470;2022-12-16T06:31:35;101204.03;;;-4.54;100.00
13420;BME280;6781;58.440;15.470;2022-12-16T06:34:19;101230.97;;;-4.50;100.00
13420;BME280;6781;58.440;15.470;2022-12-16T06:37:04;101220.94;;;-4.63;100.00
13420;BME280;6781;58.440;15.470;2022-12-16T06:39:48;101236.94;;;-4.61;100.00
13420;BME280;6781;58.440;15.470;2022-12-16T06:42:47;101245.38;;;-4.60;100.00
13420;BME280;6781;58.440;15.470;2022-12-16T06:45:31;101260.59;;;-4.63;100.00
13420;BME280;6781;58.440;15.470;2022-12-16T06:48:15;101259.78;;;-4.73;100.00
13420;BME280;6781;58.440;15.470;2022-12-16T06:50:59;101273.25;;;-4.68;100.00
13420;BME280;6781;58.440;15.470;2022-12-16T06:53:45;101292.59;;;-4.61;100.00
13420;BME280;6781;58.440;15.470;2022-12-16T06:56:29;101296.84;;;-4.66;100.00
13420;BME280;6781;58.440;15.470;2022-12-16T06:59:21;101306.09;;;-4.60;100.00
13420;BME280;6781;58.440;15.470;2022-12-16T07:02:07;101302.72;;;-4.56;100.00
13420;BME280;6781;58.440;15.470;2022-12-16T07:04:51;101315.38;;;-4.57;100.00
13420;BME280;6781;58.440;15.470;2022-12-16T07:07:35;101312.84;;;-4.57;100.00
13420;BME280;6781;58.440;15.470;2022-12-16T07:10:21;101310.31;;;-4.61;100.00
13420;BME280;6781;58.440;15.470;2022-12-16T07:13:05;101322.09;;;-4.56;100.00
13420;BME280;6781;58.440;15.470;2022-12-16T07:15:49;101327.16;;;-4.53;100.00
13420;BME280;6781;58.440;15.470;2022-12-16T07:18:34;101321.25;;;-4.52;100.00
13420;BME280;6781;58.440;15.470;2022-12-16T07:21:18;101342.34;;;-4.53;100.00
13420;BME280;6781;58.440;15.470;2022-12-16T07:24:16;101354.09;;;-4.46;100.00
13420;BME280;6781;58.440;15.470;2022-12-16T07:27:02;101355.81;;;-4.48;100.00
13420;BME280;6781;58.440;15.470;2022-12-16T07:29:46;101357.47;;;-4.43;100.00
13420;BME280;6781;58.440;15.470;2022-12-16T07:32:30;101360.81;;;-4.36;100.00
13420;BME280;6781;58.440;15.470;2022-12-16T07:35:14;101376.78;;;-4.27;100.00
13420;BME280;6781;58.440;15.470;2022-12-16T07:37:58;101362.44;;;-4.29;100.00
13420;BME280;6781;58.440;15.470;2022-12-16T07:40:42;101364.13;;;-4.28;100.00
13420;BME280;6781;58.440;15.470;2022-12-16T07:43:32;101365.81;;;-4.24;100.00
13420;BME280;6781;58.440;15.470;2022-12-16T07:46:16;101369.13;;;-4.17;100.00
13420;BME280;6781;58.440;15.470;2022-12-16T07:49:00;101373.34;;;-4.18;100.00
13420;BME280;6781;58.440;15.470;2022-12-16T07:51:44;101372.53;;;-4.23;100.00
13420;BME280;6781;58.440;15.470;2022-12-16T07:54:28;101375.09;;;-4.26;100.00
13420;BME280;6781;58.440;15.470;2022-12-16T07:57:24;101389.41;;;-4.22;100.00
13420;BME280;6781;58.440;15.470;2022-12-16T08:00:10;101383.50;;;-4.22;100.00
13420;BME280;6781;58.440;15.470;2022-12-16T08:02:54;101397.88;;;-4.23;100.00
13420;BME280;6781;58.440;15.470;2022-12-16T08:05:38;101393.63;;;-4.18;100.00
13420;BME280;6781;58.440;15.470;2022-12-16T08:08:22;101389.38;;;-4.16;100.00
13420;BME280;6781;58.440;15.470;2022-12-16T08:11:06;101388.56;;;-4.21;100.00
13420;BME280;6781;58.440;15.470;2022-12-16T08:13:50;101391.09;;;-4.21;100.00
13420;BME280;6781;58.440;15.470;2022-12-16T08:16:36;101397.84;;;-4.20;100.00
13420;BME280;6781;58.440;15.470;2022-12-16T08:19:20;101402.94;;;-4.23;100.00
13420;BME280;6781;58.440;15.470;2022-12-16T08:22:04;101399.53;;;-4.20;100.00
13420;BME280;6781;58.440;15.470;2022-12-16T08:24:48;101401.19;;;-4.12;100.00
13420;BME280;6781;58.440;15.470;2022-12-16T08:27:32;101403.72;;;-4.15;100.00
13420;BME280;6781;58.440;15.470;2022-12-16T08:30:16;101409.66;;;-4.19;100.00
13420;BME280;6781;58.440;15.470;2022-12-16T08:33:03;101406.28;;;-4.18;100.00
13420;BME280;6781;58.440;15.470;2022-12-16T08:35:58;101406.25;;;-4.15;100.00
13420;BME280;6781;58.440;15.470;2022-12-16T08:38:43;101411.31;;;-4.15;100.00
13420;BME280;6781;58.440;15.470;2022-12-16T08:41:27;101401.19;;;-4.12;100.00
13420;BME280;6781;58.440;15.470;2022-12-16T08:44:11;101409.59;;;-4.05;100.00
13420;BME280;6781;58.440;15.470;2022-12-16T08:46:55;101418.03;;;-4.05;100.00
13420;BME280;6781;58.440;15.470;2022-12-16T08:49:40;101441.59;;;-3.97;100.00
13420;BME280;6781;58.440;15.470;2022-12-16T08:52:24;101434.00;;;-3.94;100.00
13420;BME280;6781;58.440;15.470;2022-12-16T08:55:08;101433.97;;;-3.90;100.00
13420;BME280;6781;58.440;15.470;2022-12-16T08:57:52;101436.47;;;-3.83;100.00
13420;BME280;6781;58.440;15.470;2022-12-16T09:00:37;101436.41;;;-3.75;100.00
13420;BME280;6781;58.440;15.470;2022-12-16T09:03:20;101438.13;;;-3.76;100.00
13420;BME280;6781;58.440;15.470;2022-12-16T09:06:08;101429.66;;;-3.73;100.00
13420;BME280;6781;58.440;15.470;2022-12-16T09:08:52;101433.03;;;-3.74;100.00
13420;BME280;6781;58.440;15.470;2022-12-16T09:11:36;101429.66;;;-3.73;100.00
13420;BME280;6781;58.440;15.470;2022-12-16T09:14:20;101437.22;;;-3.69;100.00
13420;BME280;6781;58.440;15.470;2022-12-16T09:17:06;101436.34;;;-3.63;100.00
13420;BME280;6781;58.440;15.470;2022-12-16T09:19:50;101432.13;;;-3.67;100.00
13420;BME280;6781;58.440;15.470;2022-12-16T09:22:50;101438.00;;;-3.57;100.00
13420;BME280;6781;58.440;15.470;2022-12-16T09:25:35;101438.88;;;-3.63;100.00
13420;BME280;6781;58.440;15.470;2022-12-16T09:28:19;101438.00;;;-3.59;100.00
13420;BME280;6781;58.440;15.470;2022-12-16T09:31:02;101445.59;;;-3.61;100.00
13420;BME280;6781;58.440;15.470;2022-12-16T09:33:46;101438.03;;;-3.65;100.00
13420;BME280;6781;58.440;15.470;2022-12-16T09:36:30;101447.25;;;-3.55;100.00
13420;BME280;6781;58.440;15.470;2022-12-16T09:39:16;101450.63;;;-3.51;100.00
13420;BME280;6781;58.440;15.470;2022-12-16T09:42:00;101441.38;;;-3.57;100.00
13420;BME280;6781;58.440;15.470;2022-12-16T09:44:54;101437.94;;;-3.50;100.00
13420;BME280;6781;58.440;15.470;2022-12-16T09:47:42;101432.06;;;-3.58;100.00
13420;BME280;6781;58.440;15.470;2022-12-16T09:50:32;101439.53;;;-3.43;100.00
13420;BME280;6781;58.440;15.470;2022-12-16T09:53:19;101441.25;;;-3.45;100.00
13420;BME280;6781;58.440;15.470;2022-12-16T09:56:06;101451.38;;;-3.45;100.00
13420;BME280;6781;58.440;15.470;2022-12-16T09:58:57;101444.69;;;-3.49;100.00
13420;BME280;6781;58.440;15.470;2022-12-16T10:01:47;101453.13;;;-3.50;100.00
13420;BME280;6781;58.440;15.470;2022-12-16T10:04:33;101443.88;;;-3.52;100.00
13420;BME280;6781;58.440;15.470;2022-12-16T10:07:17;101448.81;;;-3.40;100.00
13420;BME280;6781;58.440;15.470;2022-12-16T10:10:07;101437.81;;;-3.38;100.00
13420;BME280;6781;58.440;15.470;2022-12-16T10:13:00;101436.16;;;-3.42;100.00
13420;BME280;6781;58.440;15.470;2022-12-16T10:15:48;101434.44;;;-3.40;100.00
13420;BME280;6781;58.440;15.470;2022-12-16T10:18:39;101436.06;;;-3.33;100.00
13420;BME280;6781;58.440;15.470;2022-12-16T10:21:26;101436.06;;;-3.33;100.00
13420;BME280;6781;58.440;15.470;2022-12-16T10:24:15;101434.44;;;-3.40;100.00
13420;BME280;6781;58.440;15.470;2022-12-16T10:27:08;101437.00;;;-3.41;100.00
13420;BME280;6781;58.440;15.470;2022-12-16T10:29:55;101436.25;;;-3.51;100.00
13420;BME280;6781;58.440;15.470;2022-12-16T10:32:39;101451.31;;;-3.36;100.00
13420;BME280;6781;58.440;15.470;2022-12-16T10:35:26;101443.72;;;-3.36;100.00
13420;BME280;6781;58.440;15.470;2022-12-16T10:38:13;101439.44;;;-3.31;100.00
13420;BME280;6781;58.440;15.470;2022-12-16T10:40:58;101442.81;;;-3.32;100.00
13420;BME280;6781;58.440;15.470;2022-12-16T10:43:43;101448.75;;;-3.34;100.00
13420;BME280;6781;58.440;15.470;2022-12-16T10:46:32;101447.88;;;-3.29;100.00
13420;BME280;6781;58.440;15.470;2022-12-16T10:49:16;101453.78;;;-3.28;100.00
13420;BME280;6781;58.440;15.470;2022-12-16T10:52:00;101451.22;;;-3.23;100.00
13420;BME280;6781;58.440;15.470;2022-12-16T10:54:45;101399.16;;;-3.61;100.00
13420;BME280;6781;58.440;15.470;2022-12-16T10:57:33;101463.06;;;-3.24;100.00
13420;BME280;6781;58.440;15.470;2022-12-16T11:00:36;101459.63;;;-3.18;100.00
13420;BME280;6781;58.440;15.470;2022-12-16T11:03:23;101457.19;;;-3.29;100.00
13420;BME280;6781;58.440;15.470;2022-12-16T11:06:07;101466.44;;;-3.23;100.00
13420;BME280;6781;58.440;15.470;2022-12-16T11:08:52;101464.72;;;-3.21;100.00
13420;BME280;6781;58.440;15.470;2022-12-16T11:11:36;101455.38;;;-3.16;100.00
13420;BME280;6781;58.440;15.470;2022-12-16T11:14:26;101459.66;;;-3.21;100.00
13420;BME280;6781;58.440;15.470;2022-12-16T11:17:20;101463.91;;;-3.23;100.00
13420;BME280;6781;58.440;15.470;2022-12-16T11:20:12;101457.16;;;-3.28;100.00
13420;BME280;6781;58.440;15.470;2022-12-16T11:26:04;101455.56;;;-3.38;100.00
13420;BME280;6781;58.440;15.470;2022-12-16T11:29:02;101440.34;;;-3.38;100.00
13420;BME280;6781;58.440;15.470;2022-12-16T11:31:47;101446.19;;;-3.30;100.00
13420;BME280;6781;58.440;15.470;2022-12-16T11:34:33;101444.47;;;-3.26;100.00
13420;BME280;6781;58.440;15.470;2022-12-16T11:37:19;101444.47;;;-3.24;100.00
13420;BME280;6781;58.440;15.470;2022-12-16T11:40:04;101444.44;;;-3.21;100.00
13420;BME280;6781;58.440;15.470;2022-12-16T11:42:49;101446.06;;;-3.14;100.00
13420;BME280;6781;58.440;15.470;2022-12-16T11:45:33;101444.44;;;-3.21;100.00
13420;BME280;6781;58.440;15.470;2022-12-16T11:48:19;101441.06;;;-3.23;100.00
13420;BME280;6781;58.440;15.470;2022-12-16T11:51:04;101436.88;;;-3.28;100.00
13420;BME280;6781;58.440;15.470;2022-12-16T11:53:57;101434.28;;;-3.21;100.00
13420;BME280;6781;58.440;15.470;2022-12-16T11:56:42;101429.34;;;-3.37;100.00
13420;BME280;6781;58.440;15.470;2022-12-16T11:59:29;101428.53;;;-3.40;100.00
13420;BME280;6781;58.440;15.470;2022-12-16T12:02:17;101436.03;;;-3.27;100.00
13420;BME280;6781;58.440;15.470;2022-12-16T12:05:04;101435.97;;;-3.20;100.00
13420;BME280;6781;58.440;15.470;2022-12-16T12:07:49;101439.34;;;-3.18;100.00
13420;BME280;6781;58.440;15.470;2022-12-16T12:10:42;101442.69;;;-3.16;100.00
13420;BME280;6781;58.440;15.470;2022-12-16T12:13:36;101446.97;;;-3.23;100.00
13420;BME280;6781;58.440;15.470;2022-12-16T12:16:26;101448.63;;;-3.19;100.00
13420;BME280;6781;58.440;15.470;2022-12-16T12:19:12;101447.81;;;-3.19;100.00
13420;BME280;6781;58.440;15.470;2022-12-16T12:21:59;101449.47;;;-3.15;100.00
13420;BME280;6781;58.440;15.470;2022-12-16T12:24:45;101449.47;;;-3.18;100.00
13420;BME280;6781;58.440;15.470;2022-12-16T12:27:35;101451.13;;;-3.14;100.00
13420;BME280;6781;58.440;15.470;2022-12-16T12:30:21;101442.78;;;-3.25;100.00
13420;BME280;6781;58.440;15.470;2022-12-16T12:33:16;101439.38;;;-3.23;100.00
13420;BME280;6781;58.440;15.470;2022-12-16T12:36:03;101445.22;;;-3.16;100.00
13420;BME280;6781;58.440;15.470;2022-12-16T12:38:55;101447.00;;;-3.26;100.00
13420;BME280;6781;58.440;15.470;2022-12-16T12:41:47;101439.44;;;-3.32;100.00
13420;BME280;6781;58.440;15.470;2022-12-16T12:44:39;101436.91;;;-3.32;100.00
13420;BME280;6781;58.440;15.470;2022-12-16T12:47:23;101432.72;;;-3.35;100.00
13420;BME280;6781;58.440;15.470;2022-12-16T12:50:11;101415.34;;;-3.82;100.00
13420;BME280;6781;58.440;15.470;2022-12-16T12:53:12;101440.53;;;-3.57;100.00
13420;BME280;6781;58.440;15.470;2022-12-16T12:56:00;101438.72;;;-3.46;100.00
13420;BME280;6781;58.440;15.470;2022-12-16T12:58:45;101442.94;;;-3.44;100.00
13420;BME280;6781;58.440;15.470;2022-12-16T13:01:32;101453.91;;;-3.43;100.00
13420;BME280;6781;58.440;15.470;2022-12-16T13:04:20;101457.28;;;-3.43;100.00
13420;BME280;6781;58.440;15.470;2022-12-16T13:07:05;101460.69;;;-3.45;100.00
13420;BME280;6781;58.440;15.470;2022-12-16T13:10:12;101456.44;;;-3.42;100.00
13420;BME280;6781;58.440;15.470;2022-12-16T13:16:00;101449.88;;;-3.67;100.00
13420;BME280;6781;58.440;15.470;2022-12-16T13:18:46;101460.94;;;-3.80;100.00
13420;BME280;6781;58.440;15.470;2022-12-16T13:27:28;101470.03;;;-3.49;100.00
13420;BME280;6781;58.440;15.470;2022-12-16T13:30:17;101463.34;;;-3.62;100.00
13420;BME280;6781;58.440;15.470;2022-12-16T13:33:02;101470.13;;;-3.61;100.00
13420;BME280;6781;58.440;15.470;2022-12-16T13:36:00;101466.84;;;-3.78;100.00
13420;BME280;6781;58.440;15.470;2022-12-16T13:38:45;101481.19;;;-3.74;100.00
13420;BME280;6781;58.440;15.470;2022-12-16T13:47:31;101503.06;;;-3.59;100.00
13420;BME280;6781;58.440;15.470;2022-12-16T13:50:35;101499.69;;;-3.62;100.00
13420;BME280;6781;58.440;15.470;2022-12-16T13:53:21;101500.50;;;-3.58;100.00
13420;BME280;6781;58.440;15.470;2022-12-16T13:56:06;101498.78;;;-3.53;100.00
13420;BME280;6781;58.440;15.470;2022-12-16T13:58:51;101500.44;;;-3.49;100.00
13420;BME280;6781;58.440;15.470;2022-12-16T14:01:37;101490.34;;;-3.52;100.00
13420;BME280;6781;58.440;15.470;2022-12-16T14:04:25;101503.00;;;-3.50;100.00
13420;BME280;6781;58.440;15.470;2022-12-16T14:07:24;101494.59;;;-3.57;100.00
13420;BME280;6781;58.440;15.470;2022-12-16T14:10:23;101499.59;;;-3.49;100.00
13420;BME280;6781;58.440;15.470;2022-12-16T14:13:07;101496.25;;;-3.51;100.00
13420;BME280;6781;58.440;15.470;2022-12-16T14:15:58;101483.63;;;-3.59;100.00